createdAt,value
2018-08-13T06:18:44.943Z,22.2
2018-08-13T06:23:47.484Z,26.4
2018-08-13T06:28:47.390Z,23.7
2018-08-13T06:33:46.008Z,28.7
2018-08-13T06:38:44.154Z,28.5
2018-08-13T06:43:41.706Z,29
2018-08-13T06:48:38.937Z,29.2
2018-08-13T06:53:36.061Z,29.4
2018-08-13T06:58:32.702Z,30.1
2018-08-13T07:03:29.554Z,30.4
2018-08-13T07:08:26.234Z,30.4
2018-08-13T07:13:22.941Z,30.4
2018-08-13T07:18:19.630Z,30.5
2018-08-13T07:23:16.315Z,29.9
2018-08-13T07:28:12.855Z,30.6
2018-08-13T07:33:09.136Z,29.9
2018-08-13T07:38:05.606Z,26.8
2018-08-13T07:43:02.059Z,30.6
2018-08-13T07:47:58.208Z,30.5
2018-08-13T07:52:54.289Z,29.9
2018-08-13T07:57:50.166Z,29.9
2018-08-13T08:02:46.022Z,29.8
2018-08-13T08:07:41.722Z,29.7
2018-08-13T08:12:37.575Z,29.7
2018-08-13T08:17:33.076Z,29.4
2018-08-13T08:22:28.901Z,30.2
2018-08-13T08:27:24.366Z,30.2
2018-08-13T08:32:19.810Z,30.1
2018-08-13T08:37:15.125Z,30
2018-08-13T08:42:10.123Z,29.9
2018-08-13T08:47:05.246Z,29.8
2018-08-13T08:52:00.340Z,29
2018-08-13T08:56:55.425Z,28.9
2018-08-13T09:01:50.678Z,29.5
2018-08-13T09:06:46.410Z,28.6
2018-08-13T09:11:41.893Z,28.5
2018-08-13T09:16:37.015Z,28.2
2018-08-13T09:21:32.082Z,28.3
2018-08-13T09:26:27.476Z,28.2
2018-08-13T09:31:23.406Z,28.2
2018-08-13T09:36:19.008Z,28.1
2018-08-13T09:41:14.229Z,28
2018-08-13T09:46:09.655Z,28.6
2018-08-13T09:49:47.299Z,28.8
2018-08-13T09:54:42.755Z,28.3
2018-08-13T09:59:37.206Z,27.2
2018-08-13T10:04:32.265Z,26.7
2018-08-13T10:09:27.295Z,26.5
2018-08-13T10:14:22.403Z,26.3
2018-08-13T10:19:18.071Z,26.2
2018-08-13T10:24:13.477Z,26
2018-08-13T10:29:08.865Z,26.8
2018-08-13T10:34:04.264Z,26.8
2018-08-13T10:39:00.012Z,26.5
2018-08-13T10:43:55.611Z,26.8
2018-08-13T10:48:50.936Z,26.8
2018-08-13T10:53:46.583Z,26.8
2018-08-13T10:58:42.211Z,26.9
2018-08-13T11:03:37.729Z,26.2
2018-08-13T11:08:33.363Z,26.2
2018-08-13T11:13:28.887Z,26.2
2018-08-13T11:18:24.504Z,26.1
2018-08-13T11:23:19.888Z,26.9
2018-08-13T11:28:15.360Z,26.2
2018-08-13T11:33:10.933Z,26.5
2018-08-13T11:38:06.572Z,26.4
2018-08-13T11:43:02.139Z,26.5
2018-08-13T11:47:57.793Z,26.6
2018-08-13T11:52:53.380Z,27.4
2018-08-13T11:57:49.050Z,27.6
2018-08-13T12:02:44.721Z,27
2018-08-13T12:07:40.376Z,27.8
2018-08-13T12:12:36.033Z,27.9
2018-08-13T12:17:31.530Z,27.3
2018-08-13T12:22:27.156Z,27.3
2018-08-13T12:27:22.672Z,27.4
2018-08-13T12:32:18.457Z,27.5
2018-08-13T12:37:13.173Z,27.5
2018-08-13T12:42:08.814Z,27.5
2018-08-13T12:47:04.361Z,28.2
2018-08-13T12:51:59.790Z,27.5
2018-08-13T12:56:55.303Z,27.5
2018-08-13T13:01:50.725Z,27.6
2018-08-13T13:06:46.291Z,28.2
2018-08-13T13:11:41.739Z,27.5
2018-08-13T13:16:37.188Z,27.6
2018-08-13T13:21:32.710Z,28.3
2018-08-13T13:26:28.387Z,27.6
2018-08-13T13:31:23.937Z,26.7
2018-08-13T13:36:19.230Z,27.7
2018-08-13T13:41:15.053Z,28.5
2018-08-13T13:46:10.616Z,28.2
2018-08-13T13:51:06.145Z,28.5
2018-08-13T13:56:01.726Z,28.6
2018-08-13T14:00:57.298Z,28
2018-08-13T14:05:53.013Z,28.1
2018-08-13T14:10:48.618Z,28.9
2018-08-13T14:15:44.032Z,28.2
2018-08-13T14:20:39.271Z,28.1
2018-08-13T14:25:34.950Z,28.7
2018-08-13T14:30:30.551Z,28
2018-08-13T14:35:25.877Z,28
2018-08-13T14:40:21.348Z,28.6
2018-08-13T14:45:16.957Z,27.9
2018-08-13T14:50:12.299Z,27.8
2018-08-13T14:55:07.686Z,27.8
2018-08-13T15:00:03.183Z,27.7
2018-08-13T15:04:58.678Z,27.8
2018-08-13T15:09:54.181Z,28.4
2018-08-13T15:14:49.691Z,28.4
2018-08-13T15:19:45.069Z,27.6
2018-08-13T15:24:40.480Z,27.6
2018-08-13T15:29:35.866Z,27.6
2018-08-13T15:34:31.411Z,27.6
2018-08-13T15:39:26.895Z,27.9
2018-08-13T15:44:22.693Z,28.3
2018-08-13T15:49:18.297Z,28.2
2018-08-13T15:54:13.865Z,27.6
2018-08-13T15:59:09.297Z,27.6
2018-08-13T16:04:04.893Z,27.6
2018-08-13T16:09:00.487Z,28.3
2018-08-13T16:13:55.861Z,27.5
2018-08-13T16:18:51.168Z,27.6
2018-08-13T16:23:46.760Z,28.1
2018-08-13T16:28:42.208Z,27.4
2018-08-13T16:33:37.786Z,27.4
2018-08-13T16:38:32.990Z,27.3
2018-08-13T16:43:28.552Z,27.9
2018-08-13T16:48:23.900Z,27.2
2018-08-13T16:53:19.542Z,27.1
2018-08-13T16:58:15.107Z,27.1
2018-08-13T17:03:10.783Z,27.7
2018-08-13T17:08:06.069Z,26.9
2018-08-13T17:13:01.522Z,26.8
2018-08-13T17:17:56.995Z,26.7
2018-08-13T17:22:52.474Z,26.7
2018-08-13T17:27:47.947Z,26.6
2018-08-13T17:32:43.537Z,26.5
2018-08-13T17:37:39.006Z,26.5
2018-08-13T17:42:34.558Z,26.3
2018-08-13T17:47:29.966Z,26.2
2018-08-13T17:52:25.461Z,26.9
2018-08-13T17:57:21.111Z,26.8
2018-08-13T18:02:16.046Z,25.8
2018-08-13T18:07:11.354Z,26
2018-08-13T18:12:06.616Z,26.6
2018-08-13T18:17:02.019Z,25.9
2018-08-13T18:21:57.618Z,26.5
2018-08-13T18:26:53.105Z,26.5
2018-08-13T18:31:48.596Z,26.4
2018-08-13T18:36:43.948Z,26.4
2018-08-13T18:41:39.450Z,26.3
2018-08-13T18:46:34.984Z,25.5
2018-08-13T18:51:30.375Z,26.2
2018-08-13T18:56:26.165Z,26.1
2018-08-13T19:01:21.243Z,26.1
2018-08-13T19:06:16.644Z,26
2018-08-13T19:11:12.232Z,26
2018-08-13T19:16:07.721Z,25.9
2018-08-13T19:21:03.014Z,25.9
2018-08-13T19:25:58.787Z,25.8
2018-08-13T19:30:54.380Z,25.8
2018-08-13T19:35:49.939Z,25.7
2018-08-13T19:40:45.380Z,25.5
2018-08-13T19:45:40.734Z,25.6
2018-08-13T19:50:36.257Z,25.6
2018-08-13T19:55:31.702Z,25.5
2018-08-13T20:00:27.347Z,25.5
2018-08-13T20:05:22.865Z,25.4
2018-08-13T20:10:18.267Z,25.4
2018-08-13T20:15:13.514Z,24.8
2018-08-13T20:20:09.277Z,25.2
2018-08-13T20:25:04.750Z,25.1
2018-08-13T20:30:00.343Z,24.5
2018-08-13T20:34:55.590Z,25
2018-08-13T20:39:51.123Z,24.2
2018-08-13T20:44:46.883Z,24.1
2018-08-13T20:49:42.410Z,24.8
2018-08-13T20:54:37.661Z,24.7
2018-08-13T20:59:32.941Z,24.7
2018-08-13T21:04:27.941Z,24.6
2018-08-13T21:09:23.463Z,24.6
2018-08-13T21:14:18.616Z,21.8
2018-08-13T21:19:13.810Z,24.5
2018-08-13T21:24:09.315Z,24.4
2018-08-13T21:29:09.041Z,22.7
2018-08-13T21:34:03.424Z,24.3
2018-08-13T21:38:58.751Z,24.3
2018-08-13T21:43:54.329Z,23.5
2018-08-13T21:48:50.031Z,23.4
2018-08-13T21:53:45.530Z,23.4
2018-08-13T21:58:41.022Z,23.4
2018-08-13T22:03:36.665Z,24.1
2018-08-13T22:08:32.257Z,23.3
2018-08-13T22:13:27.687Z,24
2018-08-13T22:18:23.231Z,23.3
2018-08-13T22:23:18.857Z,23.5
2018-08-13T22:28:14.314Z,23.2
2018-08-13T22:33:09.924Z,23.9
2018-08-13T22:38:05.348Z,23.9
2018-08-13T22:43:00.788Z,23.8
2018-08-13T22:47:56.311Z,23.8
2018-08-13T22:52:51.871Z,23
2018-08-13T22:57:47.335Z,23.7
2018-08-13T23:02:42.752Z,22.9
2018-08-13T23:07:38.530Z,23
2018-08-13T23:12:34.272Z,22.9
2018-08-13T23:17:29.875Z,22.8
2018-08-13T23:22:25.482Z,22.8
2018-08-13T23:27:21.059Z,22.8
2018-08-13T23:32:16.531Z,22.8
2018-08-13T23:37:12.136Z,22.6
2018-08-13T23:42:07.740Z,23.4
2018-08-13T23:47:03.096Z,22.5
2018-08-13T23:51:58.507Z,23.3
2018-08-13T23:56:54.207Z,23.2
